Time;durP1;ratioP1;P1;durP2;ratioP2;P2;SDS_P1;SDS_P2;PMS_P1;PMS_P2;Temp;Humidity;BMP_temperature;BMP_pressure;BME280_temperature;BME280_humidity;BME280_pressure;Samples;Min_cycle;Max_cycle;Signal;HPM_P1;HPM_P2
2023/07/10 00:02:20;;;;;;;5.80;2.38;;;;;;;;;;5027259;28;20445;-70
2023/07/10 00:04:45;;;;;;;4.93;2.30;;;;;;;;;;5027326;28;20033;-70
2023/07/10 00:07:10;;;;;;;4.63;2.53;;;;;;;;;;5026738;28;20065;-71
2023/07/10 00:09:36;;;;;;;5.82;2.42;;;;;;;;;;5027141;28;20127;-70
2023/07/10 00:12:01;;;;;;;4.18;2.55;;;;;;;;;;5026219;28;20029;-70
2023/07/10 00:14:26;;;;;;;3.80;2.20;;;;;;;;;;5026524;28;20025;-70
2023/07/10 00:16:52;;;;;;;4.40;2.30;;;;;;;;;;5058557;28;20048;-71
2023/07/10 00:19:18;;;;;;;5.10;2.50;;;;;;;;;;5026489;28;20041;-70
2023/07/10 00:21:45;;;;;;;4.68;2.35;;;;;;;;;;5026844;28;20033;-70
2023/07/10 00:24:11;;;;;;;5.70;2.70;;;;;;;;;;5026112;28;20083;-70
2023/07/10 00:26:37;;;;;;;4.85;2.20;;;;;;;;;;5027383;28;20033;-70
2023/07/10 00:46:33;;;;;;;4.30;2.80;;;;;;;;;;5019821;28;20487;-70
2023/07/10 00:49:30;;;;;;;5.85;2.70;;;;;;;;;;5036175;28;20737;-70
2023/07/10 00:52:03;;;;;;;5.45;2.97;;;;;;;;;;4995463;28;20041;-70
2023/07/10 00:54:34;;;;;;;9.53;2.63;;;;;;;;;;5025520;28;20034;-70
2023/07/10 00:57:04;;;;;;;6.05;3.22;;;;;;;;;;5023468;28;20037;-70
2023/07/10 00:59:33;;;;;;;4.10;2.50;;;;;;;;;;5057858;28;20014;-70
2023/07/10 01:02:07;;;;;;;4.32;2.78;;;;;;;;;;5025734;28;20643;-70
2023/07/10 01:04:33;;;;;;;5.90;2.40;;;;;;;;;;5038529;28;20041;-70
2023/07/10 01:06:58;;;;;;;4.95;2.75;;;;;;;;;;5018314;28;20041;-70
2023/07/10 01:09:24;;;;;;;6.78;3.08;;;;;;;;;;5025824;28;20463;-70
2023/07/10 01:11:49;;;;;;;4.60;2.30;;;;;;;;;;5033668;28;20036;-70
2023/07/10 01:14:17;;;;;;;5.03;2.60;;;;;;;;;;5031091;28;20041;-70
2023/07/10 01:16:42;;;;;;;4.97;2.40;;;;;;;;;;5025433;28;20049;-70
2023/07/10 01:19:16;;;;;;;4.13;2.63;;;;;;;;;;5025519;28;20029;-70
2023/07/10 01:21:42;;;;;;;5.15;2.80;;;;;;;;;;5025068;28;20061;-70
2023/07/10 01:24:08;;;;;;;4.72;2.58;;;;;;;;;;5014598;28;20464;-70
2023/07/10 01:26:36;;;;;;;5.07;2.60;;;;;;;;;;5024524;28;20022;-70
2023/07/10 01:29:02;;;;;;;4.82;2.65;;;;;;;;;;5024453;28;20057;-70
2023/07/10 01:31:30;;;;;;;6.07;2.85;;;;;;;;;;5025449;28;20033;-70
2023/07/10 01:33:59;;;;;;;5.13;2.40;;;;;;;;;;5025479;28;20065;-70
2023/07/10 01:36:28;;;;;;;5.63;2.55;;;;;;;;;;5024875;28;20626;-70
2023/07/10 01:39:15;;;;;;;5.28;2.63;;;;;;;;;;5037705;28;20563;-70
2023/07/10 01:41:43;;;;;;;3.63;2.40;;;;;;;;;;5025708;28;20029;-70
2023/07/10 01:44:26;;;;;;;4.75;2.30;;;;;;;;;;5024625;28;20511;-70
2023/07/10 01:46:52;;;;;;;;;;;;;;;;;;5024523;28;20037;-70
2023/07/10 01:49:23;;;;;;;4.78;2.53;;;;;;;;;;5025243;28;20341;-70
2023/07/10 01:51:49;;;;;;;7.35;2.88;;;;;;;;;;5024742;28;20543;-70
2023/07/10 01:54:15;;;;;;;4.38;2.67;;;;;;;;;;5025830;28;20035;-70
2023/07/10 01:56:42;;;;;;;4.60;3.00;;;;;;;;;;5027615;28;20104;-70
2023/07/10 01:59:07;;;;;;;5.93;2.78;;;;;;;;;;5032059;28;20033;-70
2023/07/10 02:01:33;;;;;;;5.00;2.60;;;;;;;;;;5031748;28;20041;-70
2023/07/10 02:03:58;;;;;;;4.25;2.55;;;;;;;;;;5024456;28;20095;-70
2023/07/10 02:06:23;;;;;;;7.40;2.88;;;;;;;;;;5024864;28;20047;-70
2023/07/10 02:08:49;;;;;;;7.75;2.92;;;;;;;;;;5022749;28;20479;-70
2023/07/10 02:11:14;;;;;;;5.10;3.25;;;;;;;;;;5023885;28;20621;-70
2023/07/10 02:13:40;;;;;;;5.68;2.90;;;;;;;;;;5024218;28;20036;-70
2023/07/10 02:16:05;;;;;;;3.83;2.58;;;;;;;;;;5024938;28;20051;-70
2023/07/10 02:18:30;;;;;;;4.97;3.03;;;;;;;;;;5024627;28;20415;-70
2023/07/10 02:20:56;;;;;;;6.32;3.40;;;;;;;;;;5024453;28;20155;-70
2023/07/10 02:23:22;;;;;;;6.40;2.85;;;;;;;;;;5024937;28;20038;-70
2023/07/10 02:25:47;;;;;;;5.03;2.75;;;;;;;;;;5024391;28;20151;-70
2023/07/10 02:28:12;;;;;;;6.15;2.85;;;;;;;;;;5023230;28;20045;-70
2023/07/10 02:30:38;;;;;;;4.10;2.63;;;;;;;;;;5024291;28;20034;-70
2023/07/10 02:33:04;;;;;;;6.88;3.00;;;;;;;;;;5024711;28;20045;-70
2023/07/10 02:35:30;;;;;;;5.70;2.63;;;;;;;;;;5024323;28;20528;-70
2023/07/10 02:37:55;;;;;;;5.18;2.58;;;;;;;;;;5042216;28;20049;-70
2023/07/10 02:40:20;;;;;;;4.32;2.60;;;;;;;;;;5045236;28;20040;-70
2023/07/10 02:42:46;;;;;;;4.32;3.20;;;;;;;;;;5062610;28;20080;-70
2023/07/10 02:45:13;;;;;;;5.78;3.10;;;;;;;;;;5026479;28;20029;-70
2023/07/10 02:47:38;;;;;;;5.38;2.63;;;;;;;;;;5026611;28;20017;-70
2023/07/10 02:50:03;;;;;;;4.55;2.75;;;;;;;;;;5027429;28;20041;-70
2023/07/10 02:52:29;;;;;;;5.85;2.97;;;;;;;;;;5028256;28;20045;-70
2023/07/10 02:54:54;;;;;;;7.20;3.47;;;;;;;;;;5027932;28;20044;-70
2023/07/10 02:57:19;;;;;;;4.75;3.03;;;;;;;;;;5027758;28;20029;-70
2023/07/10 02:59:45;;;;;;;8.38;3.67;;;;;;;;;;5028485;28;20025;-70
2023/07/10 03:02:10;;;;;;;8.60;3.20;;;;;;;;;;5027959;28;20041;-70
2023/07/10 03:04:35;;;;;;;4.80;2.78;;;;;;;;;;5028600;28;20033;-70
2023/07/10 03:07:01;;;;;;;8.13;3.15;;;;;;;;;;5027989;28;20056;-70
2023/07/10 03:09:26;;;;;;;5.70;2.92;;;;;;;;;;5028033;28;20525;-70
2023/07/10 03:11:52;;;;;;;5.10;3.22;;;;;;;;;;5027668;28;20108;-70
2023/07/10 03:14:18;;;;;;;6.65;3.53;;;;;;;;;;5027948;28;20038;-70
2023/07/10 03:16:43;;;;;;;7.65;3.40;;;;;;;;;;5027806;28;20125;-70
2023/07/10 03:19:08;;;;;;;6.85;3.20;;;;;;;;;;5028068;28;20502;-70
2023/07/10 03:21:34;;;;;;;6.28;3.28;;;;;;;;;;5028700;28;20033;-70
2023/07/10 03:24:00;;;;;;;6.00;3.30;;;;;;;;;;5031248;28;20117;-70
2023/07/10 03:26:25;;;;;;;6.85;3.00;;;;;;;;;;5036432;28;20529;-70
2023/07/10 03:29:09;;;;;;;5.20;2.88;;;;;;;;;;5035538;28;20068;-70
2023/07/10 03:31:35;;;;;;;5.03;3.00;;;;;;;;;;5029153;28;20052;-70
2023/07/10 03:34:00;;;;;;;5.45;2.63;;;;;;;;;;5027050;28;20545;-71
2023/07/10 03:36:25;;;;;;;6.53;3.10;;;;;;;;;;5027724;28;20061;-70
2023/07/10 03:38:51;;;;;;;4.88;2.83;;;;;;;;;;5041155;28;20033;-70
2023/07/10 03:41:16;;;;;;;5.40;2.83;;;;;;;;;;5027572;28;20087;-70
2023/07/10 03:43:41;;;;;;;5.78;2.80;;;;;;;;;;5032419;28;20040;-70
2023/07/10 03:46:06;;;;;;;5.70;2.85;;;;;;;;;;5035294;28;20115;-70
2023/07/10 03:48:32;;;;;;;7.63;3.40;;;;;;;;;;5026333;28;20079;-70
2023/07/10 03:50:58;;;;;;;7.45;2.90;;;;;;;;;;5026740;28;20080;-70
2023/07/10 03:53:23;;;;;;;6.72;3.20;;;;;;;;;;5028039;28;20041;-70
2023/07/10 03:55:52;;;;;;;7.82;2.90;;;;;;;;;;5027377;28;20045;-70
2023/07/10 03:58:29;;;;;;;5.03;2.90;;;;;;;;;;5027109;28;20069;-70
2023/07/10 04:00:56;;;;;;;5.22;2.67;;;;;;;;;;5026952;28;20662;-70
2023/07/10 04:03:24;;;;;;;7.30;3.10;;;;;;;;;;5026696;28;20037;-70
2023/07/10 04:05:52;;;;;;;4.75;2.90;;;;;;;;;;5026785;28;20058;-71
2023/07/10 04:08:23;;;;;;;4.70;2.88;;;;;;;;;;5025762;28;20096;-71
2023/07/10 04:10:53;;;;;;;5.13;2.78;;;;;;;;;;5027201;28;20029;-71
2023/07/10 04:13:19;;;;;;;3.25;2.33;;;;;;;;;;5026626;28;20040;-71
2023/07/10 04:16:05;;;;;;;4.30;2.65;;;;;;;;;;5026410;28;20693;-71
2023/07/10 04:18:33;;;;;;;6.00;2.80;;;;;;;;;;5025480;28;20029;-73
2023/07/10 04:21:00;;;;;;;3.65;2.80;;;;;;;;;;5025990;28;20542;-69
2023/07/10 04:23:26;;;;;;;3.95;2.78;;;;;;;;;;5026841;28;20030;-69
2023/07/10 04:25:51;;;;;;;5.95;2.67;;;;;;;;;;5026608;28;20604;-69
2023/07/10 04:28:17;;;;;;;6.22;2.83;;;;;;;;;;5026210;28;20729;-69
2023/07/10 04:30:46;;;;;;;5.22;2.70;;;;;;;;;;5026612;28;20037;-69
2023/07/10 04:33:13;;;;;;;10.98;3.45;;;;;;;;;;5024722;28;20029;-69
2023/07/10 04:35:40;;;;;;;4.95;3.00;;;;;;;;;;5026777;28;20018;-69
2023/07/10 04:38:06;;;;;;;8.80;3.42;;;;;;;;;;5032429;28;20030;-69
2023/07/10 04:40:31;;;;;;;7.57;3.08;;;;;;;;;;5031050;28;20458;-69
2023/07/10 04:42:56;;;;;;;5.05;3.15;;;;;;;;;;5026514;28;20030;-69
2023/07/10 04:45:22;;;;;;;7.28;3.40;;;;;;;;;;5037820;28;20034;-69
2023/07/10 04:47:48;;;;;;;5.30;3.00;;;;;;;;;;5026964;28;20017;-69
2023/07/10 04:50:13;;;;;;;4.40;2.80;;;;;;;;;;5027079;28;20033;-69
2023/07/10 04:52:39;;;;;;;6.07;3.33;;;;;;;;;;5033825;28;20089;-69
2023/07/10 04:55:04;;;;;;;7.10;3.10;;;;;;;;;;5033361;28;20044;-70
2023/07/10 04:57:29;;;;;;;10.13;3.30;;;;;;;;;;5025502;28;20033;-69
2023/07/10 04:59:55;;;;;;;6.22;3.15;;;;;;;;;;5024313;28;20017;-70
2023/07/10 05:02:20;;;;;;;9.32;4.50;;;;;;;;;;5024292;28;20025;-70
2023/07/10 05:04:45;;;;;;;7.57;3.13;;;;;;;;;;5024559;28;20754;-70
2023/07/10 05:07:11;;;;;;;10.63;3.20;;;;;;;;;;5025407;28;20053;-69
2023/07/10 05:09:36;;;;;;;6.63;3.10;;;;;;;;;;5026108;28;20038;-70
2023/07/10 05:12:02;;;;;;;7.30;3.35;;;;;;;;;;5025832;28;20021;-69
2023/07/10 05:14:27;;;;;;;5.40;3.50;;;;;;;;;;5026417;28;20057;-69
2023/07/10 05:16:53;;;;;;;9.57;3.47;;;;;;;;;;5025085;28;20033;-70
2023/07/10 05:19:18;;;;;;;6.80;3.20;;;;;;;;;;5025349;28;20518;-69
2023/07/10 05:21:43;;;;;;;8.02;3.55;;;;;;;;;;5025541;28;20053;-69
2023/07/10 05:24:09;;;;;;;5.97;3.40;;;;;;;;;;5025501;28;20029;-70
2023/07/10 05:26:34;;;;;;;9.05;4.07;;;;;;;;;;5025540;28;20165;-69
2023/07/10 05:28:59;;;;;;;11.00;4.25;;;;;;;;;;5025496;28;20107;-69
2023/07/10 05:31:25;;;;;;;7.25;3.90;;;;;;;;;;5023929;28;20041;-70
2023/07/10 05:33:50;;;;;;;8.88;4.00;;;;;;;;;;5025018;28;20123;-70
2023/07/10 05:36:16;;;;;;;6.82;4.03;;;;;;;;;;5025302;28;20464;-69
2023/07/10 05:38:42;;;;;;;8.57;4.70;;;;;;;;;;5038782;28;20029;-70
2023/07/10 05:41:08;;;;;;;9.27;5.32;;;;;;;;;;5025418;28;20076;-70
2023/07/10 05:43:35;;;;;;;12.98;5.47;;;;;;;;;;5029159;28;20072;-70
2023/07/10 05:46:01;;;;;;;11.95;5.82;;;;;;;;;;5033834;28;20042;-70
2023/07/10 05:48:27;;;;;;;13.13;5.53;;;;;;;;;;5024918;28;20040;-70
2023/07/10 05:50:53;;;;;;;12.95;5.60;;;;;;;;;;5025925;28;20029;-70
2023/07/10 05:53:19;;;;;;;9.13;5.55;;;;;;;;;;5024533;28;20052;-70
2023/07/10 05:55:50;;;;;;;13.98;5.75;;;;;;;;;;5024984;28;20051;-70
2023/07/10 05:58:17;;;;;;;20.27;7.47;;;;;;;;;;5024520;28;20045;-70
2023/07/10 06:00:43;;;;;;;15.18;6.40;;;;;;;;;;5024837;28;20033;-70
2023/07/10 06:03:09;;;;;;;12.55;6.80;;;;;;;;;;5024276;28;20541;-70
2023/07/10 06:05:35;;;;;;;13.45;6.55;;;;;;;;;;5023580;28;20060;-70
2023/07/10 06:08:01;;;;;;;15.57;6.55;;;;;;;;;;5025126;28;20029;-70
2023/07/10 06:10:26;;;;;;;15.82;7.40;;;;;;;;;;5025043;28;20048;-70
2023/07/10 06:12:51;;;;;;;17.60;7.97;;;;;;;;;;5024566;28;20550;-70
2023/07/10 06:15:17;;;;;;;16.00;7.65;;;;;;;;;;5025797;28;20041;-69
2023/07/10 06:17:42;;;;;;;18.50;7.50;;;;;;;;;;5030295;28;20021;-68
2023/07/10 06:20:08;;;;;;;17.38;7.32;;;;;;;;;;5033874;28;20091;-69
2023/07/10 06:22:33;;;;;;;12.90;6.63;;;;;;;;;;5031410;28;20044;-70
2023/07/10 06:24:58;;;;;;;14.68;7.07;;;;;;;;;;5025931;28;20452;-70
2023/07/10 06:27:24;;;;;;;15.23;6.85;;;;;;;;;;5025348;28;20033;-70
2023/07/10 06:29:51;;;;;;;16.02;7.10;;;;;;;;;;5025130;28;20060;-70
2023/07/10 06:32:17;;;;;;;21.77;7.82;;;;;;;;;;5024955;28;20121;-70
2023/07/10 06:34:42;;;;;;;13.23;6.50;;;;;;;;;;5024414;28;20116;-70
2023/07/10 06:37:08;;;;;;;14.73;6.15;;;;;;;;;;5024103;28;20709;-70
2023/07/10 06:39:33;;;;;;;12.82;5.60;;;;;;;;;;5023280;28;20096;-70
2023/07/10 06:41:58;;;;;;;11.90;5.03;;;;;;;;;;5024283;28;20067;-70
2023/07/10 06:44:24;;;;;;;10.98;4.60;;;;;;;;;;5022185;28;20063;-70
2023/07/10 06:46:50;;;;;;;8.57;4.93;;;;;;;;;;5024759;28;20128;-69
2023/07/10 06:49:15;;;;;;;10.60;5.38;;;;;;;;;;5024244;28;20037;-70
2023/07/10 06:51:40;;;;;;;8.10;4.68;;;;;;;;;;5001569;28;20454;-68
2023/07/10 06:54:06;;;;;;;9.05;4.70;;;;;;;;;;5010504;28;20033;-69
2023/07/10 06:56:31;;;;;;;9.98;4.55;;;;;;;;;;5010278;28;20014;-69
2023/07/10 06:58:57;;;;;;;8.23;4.45;;;;;;;;;;5007282;28;20065;-69
2023/07/10 07:01:22;;;;;;;5.78;2.88;;;;;;;;;;5018944;28;20076;-69
2023/07/10 07:03:48;;;;;;;6.93;3.30;;;;;;;;;;5022969;28;20533;-69
2023/07/10 07:06:13;;;;;;;7.38;2.97;;;;;;;;;;5021831;28;20550;-69
2023/07/10 07:08:41;;;;;;;6.63;3.45;;;;;;;;;;5023312;28;20025;-70
2023/07/10 07:11:06;;;;;;;9.82;3.13;;;;;;;;;;5023225;28;20388;-69
2023/07/10 07:13:32;;;;;;;7.28;3.08;;;;;;;;;;5023557;28;20037;-69
2023/07/10 07:15:57;;;;;;;6.13;2.92;;;;;;;;;;5023857;28;20033;-69
2023/07/10 07:18:24;;;;;;;6.60;2.83;;;;;;;;;;5023355;28;20033;-69
2023/07/10 07:20:49;;;;;;;9.27;3.22;;;;;;;;;;5022544;28;20025;-69
2023/07/10 07:23:15;;;;;;;5.40;3.72;;;;;;;;;;5023286;28;20399;-68
2023/07/10 07:25:44;;;;;;;9.55;3.25;;;;;;;;;;5027239;28;20033;-69
2023/07/10 07:28:10;;;;;;;15.20;3.40;;;;;;;;;;5026828;28;20046;-68
2023/07/10 07:30:36;;;;;;;9.55;3.50;;;;;;;;;;5027098;28;20171;-68
2023/07/10 07:33:01;;;;;;;8.35;3.00;;;;;;;;;;5027261;28;20528;-68
2023/07/10 07:35:27;;;;;;;6.20;3.55;;;;;;;;;;5027835;28;20445;-70
2023/07/10 07:37:53;;;;;;;9.40;3.47;;;;;;;;;;5027347;28;20037;-70
2023/07/10 07:40:18;;;;;;;8.35;3.10;;;;;;;;;;5028134;28;20045;-70
2023/07/10 07:42:47;;;;;;;8.73;2.97;;;;;;;;;;5028012;28;20124;-69
2023/07/10 07:45:14;;;;;;;10.52;3.28;;;;;;;;;;5033192;28;20037;-69
2023/07/10 07:47:43;;;;;;;6.35;3.22;;;;;;;;;;5031838;28;20048;-69
2023/07/10 07:50:09;;;;;;;8.30;3.17;;;;;;;;;;5026688;28;20515;-69
2023/07/10 07:52:34;;;;;;;7.80;3.05;;;;;;;;;;5026659;28;20038;-69
2023/07/10 07:55:00;;;;;;;8.93;3.58;;;;;;;;;;5026204;28;20033;-69
2023/07/10 07:57:25;;;;;;;6.20;2.92;;;;;;;;;;5026242;28;20166;-69
2023/07/10 07:59:51;;;;;;;6.60;2.85;;;;;;;;;;5026720;28;20033;-69
2023/07/10 08:02:17;;;;;;;6.18;2.83;;;;;;;;;;5023772;28;20522;-69
2023/07/10 08:04:42;;;;;;;4.88;2.30;;;;;;;;;;5025559;28;20041;-69
2023/07/10 08:07:08;;;;;;;3.95;2.30;;;;;;;;;;5025981;28;20133;-69
2023/07/10 08:09:34;;;;;;;8.32;2.70;;;;;;;;;;5024263;28;20032;-69
2023/07/10 08:11:59;;;;;;;6.00;2.80;;;;;;;;;;5025404;28;20033;-69
2023/07/10 08:14:25;;;;;;;8.35;3.15;;;;;;;;;;5026816;28;20380;-70
2023/07/10 08:16:50;;;;;;;5.25;3.10;;;;;;;;;;5024464;28;20041;-69
2023/07/10 08:19:15;;;;;;;6.10;2.63;;;;;;;;;;5012246;28;20037;-69
2023/07/10 08:21:41;;;;;;;5.63;2.40;;;;;;;;;;5017934;28;20029;-70
2023/07/10 08:24:06;;;;;;;5.70;2.47;;;;;;;;;;5012141;28;20070;-70
2023/07/10 08:26:32;;;;;;;7.57;3.03;;;;;;;;;;5020900;28;20036;-70
2023/07/10 08:28:57;;;;;;;8.98;2.75;;;;;;;;;;5025082;28;20038;-69
2023/07/10 08:31:24;;;;;;;7.47;2.58;;;;;;;;;;5026233;28;20068;-69
2023/07/10 08:33:50;;;;;;;6.35;2.80;;;;;;;;;;5024530;28;20456;-69
2023/07/10 08:36:15;;;;;;;6.82;2.95;;;;;;;;;;5017319;28;20076;-69
2023/07/10 08:38:40;;;;;;;12.95;2.70;;;;;;;;;;5015563;28;20087;-69
2023/07/10 08:41:19;;;;;;;10.50;3.20;;;;;;;;;;5009494;28;20103;-69
2023/07/10 08:43:45;;;;;;;5.68;2.72;;;;;;;;;;5020699;28;20037;-69
2023/07/10 08:46:16;;;;;;;7.32;2.75;;;;;;;;;;5034211;28;20037;-69
2023/07/10 08:48:53;;;;;;;4.68;2.30;;;;;;;;;;5033422;28;20029;-70
2023/07/10 08:51:19;;;;;;;5.13;2.47;;;;;;;;;;5024396;28;20568;-70
2023/07/10 08:53:55;;;;;;;6.63;2.08;;;;;;;;;;5025973;28;20487;-70
2023/07/10 08:56:26;;;;;;;6.15;2.20;;;;;;;;;;5057025;28;20061;-69
2023/07/10 08:58:58;;;;;;;7.55;2.40;;;;;;;;;;5025734;28;20037;-69
2023/07/10 09:01:46;;;;;;;6.82;2.40;;;;;;;;;;5024173;28;20029;-69
2023/07/10 09:04:14;;;;;;;7.57;2.30;;;;;;;;;;5021864;28;20532;-69
2023/07/10 09:06:45;;;;;;;7.28;2.90;;;;;;;;;;5026520;28;20045;-69
2023/07/10 09:09:23;;;;;;;5.22;2.60;;;;;;;;;;5028082;28;20057;-68
2023/07/10 09:11:48;;;;;;;6.53;3.00;;;;;;;;;;5030152;28;20028;-68
2023/07/10 09:14:20;;;;;;;6.28;2.47;;;;;;;;;;5032991;28;20034;-69
2023/07/10 09:16:46;;;;;;;3.58;2.53;;;;;;;;;;5027333;28;20120;-69
2023/07/10 09:19:18;;;;;;;7.00;3.10;;;;;;;;;;5025140;28;20038;-69
2023/07/10 09:21:44;;;;;;;8.27;2.60;;;;;;;;;;5025393;28;20033;-70
2023/07/10 09:24:16;;;;;;;6.68;2.45;;;;;;;;;;5024045;28;20021;-69
2023/07/10 09:26:42;;;;;;;8.05;2.33;;;;;;;;;;5025394;28;20029;-69
2023/07/10 09:29:10;;;;;;;4.28;2.00;;;;;;;;;;5025371;28;20064;-69
2023/07/10 09:31:48;;;;;;;10.93;2.45;;;;;;;;;;5025608;28;20050;-69
2023/07/10 09:34:13;;;;;;;3.85;2.50;;;;;;;;;;5025166;28;20040;-69
2023/07/10 09:36:38;;;;;;;4.65;2.20;;;;;;;;;;5025096;28;20037;-69
2023/07/10 09:39:04;;;;;;;5.40;2.88;;;;;;;;;;5020204;28;20022;-70
2023/07/10 09:41:30;;;;;;;9.10;2.90;;;;;;;;;;5013971;28;20021;-69
2023/07/10 09:44:17;;;;;;;3.95;2.53;;;;;;;;;;5012704;28;20053;-69
2023/07/10 09:46:42;;;;;;;7.18;2.85;;;;;;;;;;5017412;28;20041;-69
2023/07/10 09:49:23;;;;;;;5.53;3.10;;;;;;;;;;5021182;28;20049;-69
2023/07/10 09:52:03;;;;;;;5.70;2.53;;;;;;;;;;5024164;28;20075;-68
2023/07/10 09:54:37;;;;;;;6.40;3.13;;;;;;;;;;5024052;28;20029;-69
2023/07/10 09:57:09;;;;;;;6.43;2.90;;;;;;;;;;5022796;28;20036;-69
2023/07/10 09:59:35;;;;;;;5.07;2.80;;;;;;;;;;5023153;28;20017;-69
2023/07/10 10:02:26;;;;;;;7.22;2.30;;;;;;;;;;5016367;28;20033;-69
2023/07/10 10:05:12;;;;;;;6.93;2.70;;;;;;;;;;5005733;28;20038;-69
2023/07/10 10:07:41;;;;;;;4.32;2.20;;;;;;;;;;4999108;28;20049;-69
2023/07/10 10:10:33;;;;;;;5.07;2.28;;;;;;;;;;5015928;28;20037;-69
2023/07/10 10:13:23;;;;;;;5.38;2.28;;;;;;;;;;5006997;28;20037;-69
2023/07/10 10:15:54;;;;;;;4.78;2.10;;;;;;;;;;5012644;28;20131;-69
2023/07/10 10:18:44;;;;;;;7.30;1.92;;;;;;;;;;5012441;28;20042;-69
2023/07/10 10:21:16;;;;;;;4.45;2.60;;;;;;;;;;5014727;28;20041;-69
2023/07/10 10:23:44;;;;;;;4.63;2.45;;;;;;;;;;5023897;28;20025;-69
2023/07/10 10:26:33;;;;;;;4.97;2.40;;;;;;;;;;5023962;28;20056;-69
2023/07/10 10:29:24;;;;;;;6.18;2.20;;;;;;;;;;5024070;28;20034;-69
2023/07/10 10:32:04;;;;;;;7.05;2.15;;;;;;;;;;5054172;28;20528;-69
2023/07/10 10:34:33;;;;;;;5.45;2.22;;;;;;;;;;5025588;28;20037;-69
2023/07/10 10:37:16;;;;;;;2.85;2.00;;;;;;;;;;5025832;28;20041;-68
2023/07/10 10:40:08;;;;;;;4.45;2.05;;;;;;;;;;5018804;28;20037;-69
2023/07/10 10:42:56;;;;;;;5.15;2.28;;;;;;;;;;5010376;28;20049;-69
2023/07/10 10:45:30;;;;;;;6.60;2.42;;;;;;;;;;5010760;28;20132;-69
2023/07/10 10:48:20;;;;;;;5.18;2.20;;;;;;;;;;5014172;28;20032;-69
2023/07/10 10:50:55;;;;;;;4.22;1.98;;;;;;;;;;5022154;28;20040;-69
2023/07/10 10:53:43;;;;;;;8.07;1.90;;;;;;;;;;5044802;28;20037;-69
2023/07/10 10:56:17;;;;;;;2.28;1.75;;;;;;;;;;5043618;28;20045;-69
2023/07/10 10:59:16;;;;;;;5.53;2.03;;;;;;;;;;5030721;28;20057;-69
2023/07/10 11:02:08;;;;;;;4.07;2.28;;;;;;;;;;5015451;28;20037;-69
2023/07/10 11:04:40;;;;;;;5.43;2.22;;;;;;;;;;5027912;28;20037;-69
2023/07/10 11:07:11;;;;;;;4.65;2.47;;;;;;;;;;5027203;28;20048;-69
2023/07/10 11:09:43;;;;;;;4.18;2.20;;;;;;;;;;5014118;28;20044;-69
2023/07/10 11:12:22;;;;;;;5.10;2.20;;;;;;;;;;5025657;28;20036;-69
2023/07/10 11:14:50;;;;;;;6.45;2.30;;;;;;;;;;5028477;28;20235;-70
2023/07/10 11:17:16;;;;;;;7.82;2.30;;;;;;;;;;5017913;28;20038;-69
2023/07/10 11:19:42;;;;;;;4.15;2.10;;;;;;;;;;5013498;28;20477;-70
2023/07/10 11:22:29;;;;;;;6.05;2.40;;;;;;;;;;5018006;28;20041;-70
2023/07/10 11:24:55;;;;;;;4.57;2.30;;;;;;;;;;5023195;28;20714;-70
2023/07/10 11:27:41;;;;;;;3.45;2.00;;;;;;;;;;5026811;28;20091;-70
2023/07/10 11:30:10;;;;;;;5.78;1.90;;;;;;;;;;5016458;28;20040;-70
2023/07/10 11:32:56;;;;;;;3.13;2.00;;;;;;;;;;5019490;28;20025;-70
2023/07/10 11:35:23;;;;;;;4.50;2.10;;;;;;;;;;5017886;28;20708;-69
2023/07/10 11:37:48;;;;;;;6.43;2.03;;;;;;;;;;5013785;28;20389;-70
2023/07/10 11:40:44;;;;;;;3.88;2.17;;;;;;;;;;5020858;28;20048;-69
2023/07/10 11:43:25;;;;;;;4.90;2.22;;;;;;;;;;5019208;28;20034;-70
2023/07/10 11:46:15;;;;;;;5.47;2.28;;;;;;;;;;5031762;28;20047;-69
2023/07/10 11:48:54;;;;;;;3.20;2.15;;;;;;;;;;5014068;28;20095;-69
2023/07/10 11:51:29;;;;;;;6.78;2.22;;;;;;;;;;5026864;28;20477;-70
2023/07/10 11:54:34;;;;;;;3.83;1.83;;;;;;;;;;5017395;28;20025;-69
2023/07/10 11:57:08;;;;;;;3.13;1.90;;;;;;;;;;5009933;28;20025;-69
2023/07/10 11:59:42;;;;;;;5.07;2.00;;;;;;;;;;5019566;28;20021;-69
2023/07/10 12:02:35;;;;;;;4.28;2.13;;;;;;;;;;5016955;28;20131;-69
2023/07/10 12:05:11;;;;;;;5.15;2.80;;;;;;;;;;5024356;28;20090;-69
2023/07/10 12:07:36;;;;;;;2.80;2.00;;;;;;;;;;5022340;28;20041;-69
2023/07/10 12:10:10;;;;;;;3.00;2.00;;;;;;;;;;5015798;28;20052;-69
2023/07/10 12:12:36;;;;;;;5.32;1.90;;;;;;;;;;5014237;28;20132;-69
2023/07/10 12:15:02;;;;;;;3.92;1.90;;;;;;;;;;5016960;28;20040;-69
2023/07/10 12:17:30;;;;;;;5.78;2.13;;;;;;;;;;5026265;28;20032;-69
2023/07/10 12:20:00;;;;;;;2.72;1.60;;;;;;;;;;5026518;28;20084;-69
2023/07/10 12:22:34;;;;;;;3.30;1.70;;;;;;;;;;5012520;28;20033;-69
2023/07/10 12:25:00;;;;;;;2.08;1.60;;;;;;;;;;5026535;28;20032;-69
2023/07/10 12:27:32;;;;;;;7.00;1.70;;;;;;;;;;5026570;28;20116;-69
2023/07/10 12:29:57;;;;;;;4.90;1.90;;;;;;;;;;5024628;28;20033;-69
2023/07/10 12:32:25;;;;;;;3.30;1.90;;;;;;;;;;5027081;28;20021;-69
2023/07/10 12:34:50;;;;;;;3.08;1.52;;;;;;;;;;5026072;28;20041;-69
2023/07/10 12:37:17;;;;;;;3.28;2.00;;;;;;;;;;5026312;28;20465;-69
2023/07/10 12:39:49;;;;;;;5.28;1.75;;;;;;;;;;5024614;28;20033;-69
2023/07/10 12:42:41;;;;;;;5.90;1.95;;;;;;;;;;5026115;28;20037;-69
2023/07/10 12:45:14;;;;;;;3.38;1.63;;;;;;;;;;5025123;28;20080;-69
2023/07/10 12:47:45;;;;;;;3.65;1.75;;;;;;;;;;5026759;28;20088;-69
2023/07/10 12:50:10;;;;;;;3.55;1.73;;;;;;;;;;5024850;28;20053;-69
2023/07/10 12:52:37;;;;;;;2.90;1.67;;;;;;;;;;5025408;28;20041;-69
2023/07/10 12:55:05;;;;;;;2.88;1.63;;;;;;;;;;5034708;28;20136;-70
2023/07/10 12:57:35;;;;;;;3.25;1.60;;;;;;;;;;5030885;28;20048;-69
2023/07/10 13:00:08;;;;;;;3.70;2.10;;;;;;;;;;5018422;28;20025;-69
2023/07/10 13:02:44;;;;;;;;;;;;;;;;;;5040323;28;20121;-69
2023/07/10 13:05:21;;;;;;;3.83;1.70;;;;;;;;;;5024588;28;20076;-69
2023/07/10 13:07:51;;;;;;;2.33;1.80;;;;;;;;;;5025968;28;20048;-69
2023/07/10 13:10:19;;;;;;;4.18;1.83;;;;;;;;;;5025905;28;20138;-70
2023/07/10 13:12:48;;;;;;;3.17;1.73;;;;;;;;;;5022801;28;20038;-69
2023/07/10 13:15:15;;;;;;;4.50;1.88;;;;;;;;;;5022588;28;20021;-70
2023/07/10 13:17:48;;;;;;;3.10;1.65;;;;;;;;;;5026602;28;20040;-70
2023/07/10 13:20:25;;;;;;;2.80;1.65;;;;;;;;;;5023284;28;20080;-70
2023/07/10 13:22:51;;;;;;;5.32;1.80;;;;;;;;;;5013015;28;20041;-70
2023/07/10 13:25:17;;;;;;;3.65;1.92;;;;;;;;;;5025882;28;20061;-70
2023/07/10 13:27:42;;;;;;;3.17;1.63;;;;;;;;;;5023743;28;20049;-70
2023/07/10 13:30:18;;;;;;;3.53;1.90;;;;;;;;;;5028354;28;20471;-69
2023/07/10 13:32:44;;;;;;;2.60;1.70;;;;;;;;;;5032810;28;20026;-69
2023/07/10 13:35:10;;;;;;;3.20;1.55;;;;;;;;;;5027572;28;20059;-69
2023/07/10 13:37:35;;;;;;;5.20;1.60;;;;;;;;;;5026120;28;20128;-69
2023/07/10 13:40:01;;;;;;;2.70;1.50;;;;;;;;;;5031560;28;20218;-70
2023/07/10 13:42:26;;;;;;;2.50;1.50;;;;;;;;;;5016346;28;20044;-70
2023/07/10 13:44:53;;;;;;;6.65;1.60;;;;;;;;;;5009779;28;20033;-70
2023/07/10 13:47:24;;;;;;;5.22;1.67;;;;;;;;;;5017177;28;20060;-70
2023/07/10 13:49:50;;;;;;;2.95;1.85;;;;;;;;;;5013694;28;20037;-70
2023/07/10 13:52:16;;;;;;;4.20;1.80;;;;;;;;;;5014814;28;20123;-70
2023/07/10 13:54:43;;;;;;;3.53;1.90;;;;;;;;;;5024127;28;20029;-70
2023/07/10 13:57:29;;;;;;;3.55;1.80;;;;;;;;;;5013384;28;20052;-70
2023/07/10 13:59:56;;;;;;;3.53;1.90;;;;;;;;;;5009435;28;20026;-70
2023/07/10 14:02:36;;;;;;;3.65;1.70;;;;;;;;;;5018623;28;20026;-70
2023/07/10 14:05:06;;;;;;;4.85;2.10;;;;;;;;;;5023761;28;20095;-70
2023/07/10 14:07:32;;;;;;;3.35;2.15;;;;;;;;;;5023957;28;20041;-70
2023/07/10 14:09:58;;;;;;;3.60;1.67;;;;;;;;;;5024623;28;20685;-69
2023/07/10 14:12:29;;;;;;;4.93;1.52;;;;;;;;;;5022525;28;20497;-70
2023/07/10 14:14:56;;;;;;;3.78;2.10;;;;;;;;;;5021566;28;20574;-69
2023/07/10 14:17:26;;;;;;;3.83;1.90;;;;;;;;;;5024676;28;20499;-69
2023/07/10 14:19:52;;;;;;;3.55;1.67;;;;;;;;;;5023053;28;20077;-69
2023/07/10 14:22:17;;;;;;;3.35;1.60;;;;;;;;;;5024133;28;20037;-70
2023/07/10 14:24:43;;;;;;;3.72;1.77;;;;;;;;;;5022230;28;20036;-70
2023/07/10 14:27:22;;;;;;;2.15;1.63;;;;;;;;;;5023061;28;20112;-70
2023/07/10 14:29:48;;;;;;;2.28;1.55;;;;;;;;;;5024663;28;20029;-70
2023/07/10 14:32:16;;;;;;;2.13;1.77;;;;;;;;;;5024488;28;20033;-70
2023/07/10 14:34:41;;;;;;;2.53;1.70;;;;;;;;;;5027443;28;20112;-70
2023/07/10 14:37:15;;;;;;;4.88;1.80;;;;;;;;;;5027484;28;20060;-70
2023/07/10 14:39:41;;;;;;;3.55;2.00;;;;;;;;;;5025994;28;20033;-70
2023/07/10 14:42:18;;;;;;;4.18;1.67;;;;;;;;;;5020121;28;20561;-70
2023/07/10 14:44:44;;;;;;;6.15;1.90;;;;;;;;;;5028951;28;20018;-70
2023/07/10 14:47:18;;;;;;;3.92;1.95;;;;;;;;;;5027847;28;20044;-70
2023/07/10 14:49:44;;;;;;;11.88;2.38;;;;;;;;;;5028075;28;20033;-71
2023/07/10 14:52:17;;;;;;;2.92;1.80;;;;;;;;;;5028493;28;20136;-70
2023/07/10 14:54:43;;;;;;;2.35;1.80;;;;;;;;;;5037981;28;20512;-70
2023/07/10 14:57:18;;;;;;;2.55;1.90;;;;;;;;;;5018081;28;20040;-70
2023/07/10 14:59:43;;;;;;;2.63;1.50;;;;;;;;;;5024989;28;20017;-70
2023/07/10 15:02:19;;;;;;;4.35;2.33;;;;;;;;;;5029158;28;21108;-70
2023/07/10 15:04:46;;;;;;;3.20;1.80;;;;;;;;;;5018687;28;20041;-70
2023/07/10 15:07:13;;;;;;;3.95;1.73;;;;;;;;;;5028495;28;20044;-71
2023/07/10 15:09:40;;;;;;;2.53;1.80;;;;;;;;;;5028062;28;20078;-71
2023/07/10 15:12:10;;;;;;;3.70;2.20;;;;;;;;;;5027945;28;20100;-71
2023/07/10 15:14:35;;;;;;;3.95;1.60;;;;;;;;;;5027069;28;20016;-71